createdAt,value
2019-02-18T00:02:51.548Z,5.42
2019-02-18T00:06:58.546Z,5.38
2019-02-18T00:11:05.483Z,5.24
2019-02-18T00:15:12.400Z,5.04
2019-02-18T00:19:19.369Z,5.07
2019-02-18T00:23:26.398Z,5.06
2019-02-18T00:27:33.306Z,4.98
2019-02-18T00:31:40.142Z,4.92
2019-02-18T00:35:47.173Z,4.84
2019-02-18T00:39:54.262Z,4.82
2019-02-18T00:44:01.311Z,4.81
2019-02-18T00:48:08.404Z,4.71
2019-02-18T00:52:15.511Z,4.69
2019-02-18T00:56:24.536Z,4.64
2019-02-18T01:00:31.501Z,4.67
2019-02-18T01:04:39.757Z,4.50
2019-02-18T01:08:46.853Z,4.36
2019-02-18T01:12:53.912Z,4.26
2019-02-18T01:17:00.915Z,4.22
2019-02-18T01:21:08.191Z,4.23
2019-02-18T01:25:20.855Z,4.07
2019-02-18T01:29:27.875Z,3.98
2019-02-18T01:33:34.957Z,3.93
2019-02-18T01:37:45.726Z,3.86
2019-02-18T01:41:50.601Z,3.87
2019-02-18T01:45:57.590Z,3.82
2019-02-18T01:50:05.189Z,3.80
2019-02-18T01:54:12.023Z,3.66
2019-02-18T01:58:18.945Z,3.51
2019-02-18T02:02:25.872Z,3.66
2019-02-18T02:06:32.734Z,3.63
2019-02-18T02:10:39.549Z,3.51
2019-02-18T02:14:46.405Z,3.55
2019-02-18T02:18:53.197Z,3.51
2019-02-18T02:23:00.089Z,3.37
2019-02-18T02:27:06.926Z,3.30
2019-02-18T02:31:13.743Z,3.24
2019-02-18T02:35:20.619Z,3.27
2019-02-18T02:39:27.630Z,3.22
2019-02-18T02:43:34.554Z,3.12
2019-02-18T02:47:41.480Z,3.09
2019-02-18T02:51:48.457Z,3.09
2019-02-18T02:55:55.369Z,2.96
2019-02-18T03:00:02.332Z,2.89
2019-02-18T03:04:10.763Z,2.93
2019-02-18T03:08:20.695Z,2.88
2019-02-18T03:12:26.354Z,2.77
2019-02-18T03:16:33.233Z,2.84
2019-02-18T03:20:40.075Z,2.89
2019-02-18T03:25:33.190Z,2.87
2019-02-18T03:30:37.963Z,2.80
2019-02-18T03:34:47.052Z,2.78
2019-02-18T03:38:53.895Z,2.77
2019-02-18T03:43:02.787Z,2.77
2019-02-18T03:47:10.402Z,2.75
2019-02-18T03:51:17.242Z,2.73
2019-02-18T03:55:24.076Z,2.73
2019-02-18T03:59:31.026Z,2.66
2019-02-18T04:03:37.882Z,2.56
2019-02-18T04:07:44.815Z,2.59
2019-02-18T04:11:51.624Z,2.49
2019-02-18T04:15:58.516Z,2.45
2019-02-18T04:20:05.427Z,2.41
2019-02-18T04:24:12.255Z,2.38
2019-02-18T04:28:19.039Z,2.46
2019-02-18T04:32:25.881Z,2.48
2019-02-18T04:36:32.722Z,2.46
2019-02-18T04:40:39.523Z,2.37
2019-02-18T04:44:46.364Z,2.26
2019-02-18T04:48:53.175Z,2.20
2019-02-18T04:53:01.477Z,2.21
2019-02-18T04:57:08.283Z,2.27
2019-02-18T05:01:15.132Z,2.21
2019-02-18T05:05:21.953Z,2.13
2019-02-18T05:09:28.755Z,2.13
2019-02-18T05:13:35.645Z,2.09
2019-02-18T05:17:42.493Z,2.08
2019-02-18T05:21:49.522Z,2.01
2019-02-18T05:25:56.446Z,2.00
2019-02-18T05:30:03.326Z,1.92
2019-02-18T05:34:10.293Z,1.93
2019-02-18T05:38:17.146Z,1.90
2019-02-18T05:42:23.962Z,1.84
2019-02-18T05:46:31.390Z,1.74
2019-02-18T05:50:38.344Z,1.67
2019-02-18T05:54:45.243Z,1.63
2019-02-18T05:58:52.056Z,1.58
2019-02-18T06:02:58.927Z,1.65
2019-02-18T06:07:05.825Z,1.76
2019-02-18T06:11:12.768Z,1.66
2019-02-18T06:15:23.655Z,1.62
2019-02-18T06:19:30.771Z,1.60
2019-02-18T06:23:37.602Z,1.55
2019-02-18T06:27:44.467Z,1.62
2019-02-18T06:31:51.286Z,1.51
2019-02-18T06:35:58.239Z,1.55
2019-02-18T06:40:05.679Z,1.57
2019-02-18T06:44:12.565Z,1.45
2019-02-18T06:48:44.098Z,1.37
2019-02-18T06:52:50.978Z,1.25
2019-02-18T06:57:19.823Z,1.18
2019-02-18T07:01:44.183Z,1.16
2019-02-18T07:06:02.174Z,1.18
2019-02-18T07:10:20.965Z,1.18
2019-02-18T07:14:27.928Z,1.16
2019-02-18T07:18:34.846Z,1.15
2019-02-18T07:22:41.695Z,1.19
2019-02-18T07:26:48.637Z,1.30
2019-02-18T07:31:12.379Z,1.29
2019-02-18T07:35:16.221Z,1.33
2019-02-18T07:39:23.177Z,1.49
2019-02-18T07:43:30.077Z,1.45
2019-02-18T07:47:37.063Z,1.52
2019-02-18T07:51:44.098Z,1.68
2019-02-18T07:55:51.042Z,1.77
2019-02-18T07:59:58.029Z,1.88
2019-02-18T08:04:04.959Z,1.93
2019-02-18T08:08:11.776Z,2.26
2019-02-18T08:12:18.638Z,2.30
2019-02-18T08:16:25.574Z,2.71
2019-02-18T08:20:32.588Z,3.07
2019-02-18T08:24:39.494Z,3.32
2019-02-18T08:28:46.420Z,3.73
2019-02-18T08:32:53.421Z,4.41
2019-02-18T08:37:00.385Z,5.10
2019-02-18T08:41:07.339Z,5.74
2019-02-18T08:45:14.405Z,6.37
2019-02-18T08:49:21.289Z,6.53
2019-02-18T08:53:28.277Z,6.85
2019-02-18T08:57:36.088Z,6.95
2019-02-18T09:01:42.971Z,7.75
2019-02-18T09:05:51.126Z,8.17
2019-02-18T09:09:57.993Z,8.69
2019-02-18T09:14:04.824Z,8.82
2019-02-18T09:18:11.688Z,8.74
2019-02-18T09:22:52.856Z,8.92
2019-02-18T09:26:59.705Z,9.25
2019-02-18T09:31:06.557Z,9.42
2019-02-18T09:35:13.761Z,9.54
2019-02-18T09:39:30.798Z,9.77
2019-02-18T09:43:31.419Z,9.98
2019-02-18T09:47:38.386Z,9.86
2019-02-18T09:51:45.273Z,10.58
2019-02-18T09:55:52.058Z,10.76
2019-02-18T09:59:58.896Z,10.48
2019-02-18T10:04:05.764Z,10.75
2019-02-18T10:08:12.622Z,11.09
2019-02-18T10:12:19.663Z,10.75
2019-02-18T10:16:26.574Z,10.58
2019-02-18T10:20:33.455Z,10.60
2019-02-18T10:24:50.637Z,10.80
2019-02-18T10:28:52.867Z,10.50
2019-02-18T10:33:00.434Z,11.00
2019-02-18T10:37:08.910Z,11.08
2019-02-18T10:41:15.844Z,11.25
2019-02-18T10:45:22.744Z,11.56
2019-02-18T10:49:29.805Z,11.79
2019-02-18T10:53:36.662Z,12.07
2019-02-18T10:57:43.886Z,12.40
2019-02-18T11:01:50.858Z,12.67
2019-02-18T11:05:58.153Z,12.88
2019-02-18T11:10:06.524Z,13.14
2019-02-18T11:14:13.471Z,12.69
2019-02-18T11:18:20.473Z,13.17
2019-02-18T11:22:27.614Z,12.54
2019-02-18T11:26:34.697Z,12.64
2019-02-18T11:30:41.661Z,12.75
2019-02-18T11:34:48.621Z,12.49
2019-02-18T11:38:55.505Z,12.81
2019-02-18T11:43:02.462Z,13.26
2019-02-18T11:47:09.340Z,13.51
2019-02-18T11:51:16.288Z,13.57
2019-02-18T11:55:23.105Z,14.40
2019-02-18T11:59:30.047Z,14.39
2019-02-18T12:03:36.999Z,14.89
2019-02-18T12:07:44.375Z,15.31
2019-02-18T12:11:51.284Z,15.32
2019-02-18T12:15:58.137Z,16.60
2019-02-18T12:20:06.386Z,16.43
2019-02-18T12:24:13.335Z,17.36
2019-02-18T12:28:20.227Z,17.62
2019-02-18T12:32:27.097Z,17.75
2019-02-18T12:36:33.976Z,18.30
2019-02-18T12:40:40.836Z,17.69
2019-02-18T12:44:47.831Z,18.17
2019-02-18T12:48:54.726Z,18.90
2019-02-18T12:53:01.596Z,19.05
2019-02-18T12:57:09.006Z,18.98
2019-02-18T13:01:16.038Z,19.06
2019-02-18T13:05:22.968Z,19.32
2019-02-18T13:09:29.893Z,19.59
2019-02-18T13:13:36.758Z,19.70
2019-02-18T13:17:44.209Z,19.91
2019-02-18T13:21:51.246Z,19.70
2019-02-18T13:26:02.285Z,19.30
2019-02-18T13:30:15.397Z,19.09
2019-02-18T13:34:22.414Z,20.02
2019-02-18T13:38:29.352Z,20.04
2019-02-18T13:42:36.291Z,19.34
2019-02-18T13:46:43.582Z,18.71
2019-02-18T13:50:51.909Z,18.00
2019-02-18T13:55:10.661Z,17.88
2019-02-18T13:59:18.235Z,17.44
2019-02-18T14:03:25.196Z,17.29
2019-02-18T14:07:33.283Z,17.27
2019-02-18T14:11:40.263Z,16.63
2019-02-18T14:15:47.151Z,16.59
2019-02-18T14:19:54.086Z,16.24
2019-02-18T14:24:00.926Z,15.99
2019-02-18T14:28:07.799Z,15.71
2019-02-18T14:32:14.789Z,15.54
2019-02-18T14:36:21.723Z,15.59
2019-02-18T14:40:28.947Z,15.38
2019-02-18T14:44:36.928Z,15.21
2019-02-18T14:48:44.090Z,15.18
2019-02-18T14:52:51.899Z,14.94
2019-02-18T14:56:58.784Z,14.69
2019-02-18T15:01:07.958Z,14.80
2019-02-18T15:05:15.223Z,14.77
2019-02-18T15:09:22.483Z,14.72
2019-02-18T15:13:29.512Z,14.48
2019-02-18T15:17:36.706Z,14.58
2019-02-18T15:21:43.538Z,14.38
2019-02-18T15:25:50.395Z,14.36
2019-02-18T15:29:57.325Z,14.34
2019-02-18T15:34:04.291Z,14.18
2019-02-18T15:38:11.150Z,14.16
2019-02-18T15:42:18.190Z,14.02
2019-02-18T15:46:25.622Z,13.93
2019-02-18T15:50:32.699Z,13.91
2019-02-18T15:54:39.663Z,13.86
2019-02-18T15:58:46.624Z,13.77
2019-02-18T16:02:53.507Z,13.71
2019-02-18T16:07:00.547Z,13.64
2019-02-18T16:11:07.388Z,13.56
2019-02-18T16:15:14.770Z,13.50
2019-02-18T16:19:22.022Z,13.44
2019-02-18T16:23:37.659Z,13.39
2019-02-18T16:27:44.918Z,13.28
2019-02-18T16:31:52.965Z,13.19
2019-02-18T16:36:00.128Z,13.15
2019-02-18T16:40:10.239Z,13.03
2019-02-18T16:44:17.504Z,12.97
2019-02-18T16:48:24.632Z,12.88
2019-02-18T16:52:31.594Z,12.84
2019-02-18T16:56:39.343Z,12.75
2019-02-18T17:00:46.624Z,12.52
2019-02-18T17:04:53.928Z,12.51
2019-02-18T17:09:00.891Z,12.28
2019-02-18T17:13:09.606Z,11.91
2019-02-18T17:17:16.721Z,11.97
2019-02-18T17:21:23.881Z,11.99
2019-02-18T17:25:30.858Z,11.92
2019-02-18T17:29:37.830Z,11.89
2019-02-18T17:33:45.009Z,11.93
2019-02-18T17:37:52.000Z,11.86
2019-02-18T17:41:59.039Z,11.71
2019-02-18T17:46:06.201Z,11.69
2019-02-18T17:50:15.216Z,11.64
2019-02-18T17:54:23.305Z,11.61
2019-02-18T17:58:30.253Z,11.65
2019-02-18T18:02:38.364Z,11.36
2019-02-18T18:06:45.223Z,11.38
2019-02-18T18:10:52.339Z,11.38
2019-02-18T18:14:59.288Z,11.32
2019-02-18T18:19:09.277Z,11.39
2019-02-18T18:23:14.945Z,11.27
2019-02-18T18:27:22.040Z,10.95
2019-02-18T18:31:31.673Z,10.80
2019-02-18T18:35:38.710Z,10.60
2019-02-18T18:39:46.115Z,10.51
2019-02-18T18:43:53.002Z,10.46
2019-02-18T18:48:00.066Z,10.31
2019-02-18T18:52:07.809Z,10.12
2019-02-18T18:56:15.515Z,10.03
2019-02-18T19:00:26.289Z,9.93
2019-02-18T19:04:33.311Z,9.84
2019-02-18T19:08:40.359Z,9.85
2019-02-18T19:12:47.289Z,10.00
2019-02-18T19:16:56.532Z,9.85
2019-02-18T19:21:07.858Z,9.83
2019-02-18T19:25:17.790Z,9.76
2019-02-18T19:29:26.690Z,9.75
2019-02-18T19:33:33.750Z,9.77
2019-02-18T19:37:40.870Z,9.67
2019-02-18T19:41:47.853Z,9.75
2019-02-18T19:45:55.296Z,9.72
2019-02-18T19:50:02.427Z,9.69
2019-02-18T19:54:10.449Z,9.68
2019-02-18T19:58:17.437Z,9.89
2019-02-18T20:02:24.304Z,9.51
2019-02-18T20:06:31.649Z,9.38
2019-02-18T20:10:38.897Z,9.29
2019-02-18T20:14:45.782Z,9.19
2019-02-18T20:18:52.672Z,9.17
2019-02-18T20:22:59.818Z,9.11
2019-02-18T20:27:07.079Z,8.99
2019-02-18T20:31:14.196Z,9.01
2019-02-18T20:35:21.183Z,8.97
2019-02-18T20:39:28.280Z,8.94
2019-02-18T20:43:35.632Z,8.81
2019-02-18T20:47:43.101Z,8.74
2019-02-18T20:51:50.345Z,8.55
2019-02-18T20:55:57.601Z,8.29
2019-02-18T21:00:08.409Z,8.25
2019-02-18T21:04:15.310Z,8.16
2019-02-18T21:08:23.774Z,8.08
2019-02-18T21:12:30.896Z,8.05
2019-02-18T21:16:37.831Z,7.96
2019-02-18T21:20:44.748Z,7.96
2019-02-18T21:24:51.739Z,7.88
2019-02-18T21:28:59.081Z,7.96
2019-02-18T21:33:06.005Z,7.95
2019-02-18T21:37:13.067Z,7.96
2019-02-18T21:41:19.958Z,8.06
2019-02-18T21:45:26.865Z,8.10
2019-02-18T21:49:35.319Z,8.15
2019-02-18T21:53:42.373Z,8.12
2019-02-18T21:57:50.312Z,8.19
2019-02-18T22:01:57.302Z,8.24
2019-02-18T22:06:04.519Z,8.20
2019-02-18T22:10:11.435Z,8.23
2019-02-18T22:14:19.256Z,8.22
2019-02-18T22:18:26.506Z,8.23
2019-02-18T22:22:33.418Z,8.26
2019-02-18T22:26:40.262Z,8.28
2019-02-18T22:30:47.184Z,8.37
2019-02-18T22:34:54.115Z,8.36
2019-02-18T22:39:00.998Z,8.35
2019-02-18T22:43:09.498Z,8.33
2019-02-18T22:47:16.869Z,8.33
2019-02-18T22:51:23.828Z,8.29
2019-02-18T22:55:30.720Z,8.20
2019-02-18T22:59:37.585Z,8.15
2019-02-18T23:03:44.416Z,8.16
2019-02-18T23:07:51.380Z,8.10
2019-02-18T23:11:58.271Z,8.11
2019-02-18T23:16:05.556Z,8.05
2019-02-18T23:20:12.926Z,8.08
2019-02-18T23:24:19.996Z,7.84
2019-02-18T23:28:26.939Z,7.64
2019-02-18T23:32:33.844Z,7.61
2019-02-18T23:36:40.680Z,7.44
2019-02-18T23:40:47.495Z,7.30
2019-02-18T23:44:59.237Z,7.22
2019-02-18T23:49:03.001Z,7.25
2019-02-18T23:53:09.873Z,6.93
2019-02-18T23:57:16.873Z,6.93
